Time;durP1;ratioP1;P1;durP2;ratioP2;P2;SDS_P1;SDS_P2;PMS_P1;PMS_P2;Temp;Humidity;BMP_temperature;BMP_pressure;BME280_temperature;BME280_humidity;BME280_pressure;Samples;Min_cycle;Max_cycle;Signal;HPM_P1;HPM_P2
2022/10/17 00:02:02;;;;;;;45.85;34.60;;;15.50;89.50;;;;;;5056103;28;20021;-73
2022/10/17 00:04:28;;;;;;;46.65;35.67;;;15.50;89.50;;;;;;5056465;28;20033;-72
2022/10/17 00:06:53;;;;;;;47.72;34.42;;;15.50;89.50;;;;;;5056057;28;20017;-72
2022/10/17 00:09:19;;;;;;;50.30;34.83;;;15.50;89.40;;;;;;5056169;28;20470;-72
2022/10/17 00:11:45;;;;;;;44.92;34.97;;;15.50;89.40;;;;;;5055981;28;20041;-72
2022/10/17 00:14:10;;;;;;;43.58;34.45;;;15.40;89.10;;;;;;5056068;28;20033;-72
2022/10/17 00:16:36;;;;;;;49.13;35.22;;;15.40;89.00;;;;;;5056207;28;20044;-72
2022/10/17 00:19:06;;;;;;;44.63;34.58;;;15.40;89.00;;;;;;5055829;28;20500;-72
2022/10/17 00:21:32;;;;;;;45.85;35.20;;;15.40;89.30;;;;;;5056107;28;20104;-72
2022/10/17 00:23:59;;;;;;;51.42;34.83;;;15.40;89.40;;;;;;5055727;28;20033;-72
2022/10/17 00:26:27;;;;;;;56.53;38.05;;;15.30;89.30;;;;;;5055594;28;20054;-72
2022/10/17 00:28:53;;;;;;;46.35;35.45;;;15.30;89.50;;;;;;5055712;28;20033;-72
2022/10/17 00:31:20;;;;;;;46.58;35.08;;;15.30;89.70;;;;;;5055512;28;20049;-72
2022/10/17 00:33:46;;;;;;;49.13;35.67;;;15.30;89.20;;;;;;5055770;28;20040;-72
2022/10/17 00:36:18;;;;;;;45.20;33.75;;;15.30;89.20;;;;;;5055669;28;20474;-73
2022/10/17 00:38:46;;;;;;;47.85;33.60;;;15.20;89.20;;;;;;5055485;28;20037;-72
2022/10/17 00:41:18;;;;;;;49.50;33.40;;;15.20;88.70;;;;;;5054167;28;20029;-71
2022/10/17 00:43:51;;;;;;;44.45;32.78;;;15.20;88.70;;;;;;5055168;28;20037;-72
2022/10/17 00:46:16;;;;;;;;;;;15.20;88.40;;;;;;5055721;28;20040;-73
2022/10/17 00:48:42;;;;;;;39.25;32.05;;;15.10;88.20;;;;;;5055338;28;20324;-72
2022/10/17 00:51:08;;;;;;;44.10;31.52;;;15.10;88.10;;;;;;5055282;28;20520;-72
2022/10/17 00:53:36;;;;;;;42.50;32.70;;;15.00;88.30;;;;;;5055312;28;20033;-72
2022/10/17 00:56:02;;;;;;;39.50;30.70;;;15.00;88.50;;;;;;5054873;28;20091;-72
2022/10/17 00:58:27;;;;;;;41.08;31.65;;;15.00;88.40;;;;;;5053451;28;20045;-72
2022/10/17 01:00:53;;;;;;;40.50;31.70;;;15.00;88.60;;;;;;5052376;28;20071;-72
2022/10/17 01:03:19;;;;;;;51.70;33.45;;;14.90;88.50;;;;;;5052472;28;20040;-72
2022/10/17 01:05:45;;;;;;;46.65;34.60;;;14.90;88.60;;;;;;5054195;28;20035;-72
2022/10/17 01:08:11;;;;;;;55.33;34.13;;;14.90;88.60;;;;;;5054706;28;20035;-72
2022/10/17 01:10:48;;;;;;;46.25;35.42;;;14.90;88.80;;;;;;5054856;28;20132;-72
2022/10/17 01:13:34;;;;;;;49.00;34.97;;;14.90;88.80;;;;;;5054593;28;20033;-72
2022/10/17 01:16:32;;;;;;;48.00;35.28;;;14.90;88.90;;;;;;5054915;28;20064;-72
2022/10/17 01:19:23;;;;;;;51.88;35.40;;;14.90;89.20;;;;;;5054925;28;20037;-72
2022/10/17 01:22:01;;;;;;;43.53;34.55;;;14.90;89.20;;;;;;5054381;28;20120;-72
2022/10/17 01:25:17;;;;;;;45.45;34.67;;;14.80;89.40;;;;;;5054397;28;20060;-71
2022/10/17 01:28:15;;;;;;;51.15;36.95;;;14.80;89.30;;;;;;5012230;28;20124;-73
2022/10/17 01:30:44;;;;;;;57.38;38.30;;;14.80;89.40;;;;;;5010192;28;20041;-72
2022/10/17 01:33:31;;;;;;;51.55;38.20;;;14.80;89.50;;;;;;5054674;28;20079;-72
2022/10/17 01:36:08;;;;;;;49.65;37.70;;;14.80;89.70;;;;;;5054393;28;20033;-72
2022/10/17 01:38:43;;;;;;;53.72;39.10;;;14.70;89.70;;;;;;5054341;28;20112;-71
2022/10/17 01:41:44;;;;;;;53.45;39.88;;;14.70;89.90;;;;;;5054148;28;20033;-72
2022/10/17 01:44:27;;;;;;;55.65;40.30;;;14.70;90.10;;;;;;5053700;28;20041;-72
2022/10/17 01:47:03;;;;;;;52.05;38.80;;;14.70;90.20;;;;;;5054361;28;20033;-72
2022/10/17 01:49:31;;;;;;;56.05;38.15;;;14.70;90.20;;;;;;5053956;28;20037;-72
2022/10/17 01:52:21;;;;;;;50.83;38.17;;;14.70;90.30;;;;;;5054224;28;20041;-72
2022/10/17 01:54:57;;;;;;;50.97;38.80;;;14.70;90.40;;;;;;5054279;28;20090;-72
2022/10/17 01:57:49;;;;;;;56.63;38.97;;;14.70;90.40;;;;;;5054068;28;20021;-72
2022/10/17 02:00:19;;;;;;;47.50;37.03;;;14.70;90.50;;;;;;5054015;28;20045;-72
2022/10/17 02:02:48;;;;;;;50.10;38.50;;;14.70;90.50;;;;;;5054335;28;20338;-72
2022/10/17 02:05:17;;;;;;;47.90;36.95;;;14.70;90.40;;;;;;5053849;28;20500;-72
2022/10/17 02:07:43;;;;;;;54.30;37.35;;;14.70;90.40;;;;;;5054063;28;20063;-72
2022/10/17 02:10:20;;;;;;;52.83;36.90;;;14.70;90.60;;;;;;5053679;28;20065;-72
2022/10/17 02:13:06;;;;;;;48.47;37.03;;;14.70;90.60;;;;;;5053736;28;20512;-72
2022/10/17 02:15:50;;;;;;;52.53;38.15;;;14.70;90.60;;;;;;5053734;28;20037;-73
2022/10/17 02:18:31;;;;;;;50.45;37.13;;;14.70;90.70;;;;;;5053548;28;20119;-72
2022/10/17 02:21:07;;;;;;;53.83;39.08;;;14.70;90.70;;;;;;5053639;28;20099;-72
2022/10/17 02:23:45;;;;;;;49.83;38.30;;;14.70;91.00;;;;;;5053646;28;20040;-72
2022/10/17 02:26:16;;;;;;;48.38;37.35;;;14.70;90.70;;;;;;5053492;28;20032;-73
2022/10/17 02:28:51;;;;;;;50.72;38.10;;;14.70;90.70;;;;;;5053657;28;20031;-72
2022/10/17 02:31:24;;;;;;;53.40;38.88;;;14.80;90.70;;;;;;5053374;28;20041;-72
2022/10/17 02:33:59;;;;;;;54.95;37.58;;;14.80;90.60;;;;;;5053299;28;20032;-72
2022/10/17 02:36:31;;;;;;;50.35;35.85;;;14.80;90.60;;;;;;5053194;28;20040;-72
2022/10/17 02:38:58;;;;;;;44.83;33.85;;;14.80;90.50;;;;;;5053269;28;20036;-72
2022/10/17 02:41:24;;;;;;;45.55;32.63;;;14.80;90.30;;;;;;5053340;28;20029;-72
2022/10/17 02:43:51;;;;;;;43.45;32.33;;;14.80;90.30;;;;;;5053384;28;20109;-72
2022/10/17 02:46:20;;;;;;;39.90;31.50;;;14.70;90.30;;;;;;5052962;28;20033;-72
2022/10/17 02:48:50;;;;;;;42.30;31.60;;;14.70;90.20;;;;;;5053037;28;20040;-72
2022/10/17 02:51:35;;;;;;;42.22;30.02;;;14.70;90.10;;;;;;5053359;28;20069;-72
2022/10/17 02:54:36;;;;;;;40.63;29.73;;;14.60;90.10;;;;;;5053289;28;20075;-72
2022/10/17 02:57:26;;;;;;;45.72;31.10;;;14.60;90.10;;;;;;5053085;28;20029;-72
2022/10/17 02:59:54;;;;;;;42.38;31.02;;;14.60;90.20;;;;;;5052744;28;20049;-72
2022/10/17 03:02:19;;;;;;;39.60;29.98;;;14.60;90.20;;;;;;5053096;28;20150;-72
2022/10/17 03:04:46;;;;;;;42.05;31.23;;;14.60;90.20;;;;;;5052399;28;20640;-72
2022/10/17 03:07:12;;;;;;;42.08;31.52;;;14.60;90.30;;;;;;5052936;28;20119;-71
2022/10/17 03:09:38;;;;;;;39.45;29.70;;;14.50;90.50;;;;;;5052683;28;20108;-72
2022/10/17 03:12:04;;;;;;;43.42;30.23;;;14.50;90.30;;;;;;5052570;28;20036;-72
2022/10/17 03:14:30;;;;;;;39.30;30.35;;;14.50;90.40;;;;;;5052922;28;20497;-72
2022/10/17 03:16:55;;;;;;;41.60;30.90;;;14.50;90.40;;;;;;5052774;28;20110;-72
2022/10/17 03:19:21;;;;;;;40.42;30.50;;;14.50;90.50;;;;;;5052872;28;20389;-72
2022/10/17 03:21:47;;;;;;;39.22;30.40;;;14.50;90.50;;;;;;5052715;28;20084;-72
2022/10/17 03:24:12;;;;;;;36.97;28.80;;;14.50;90.40;;;;;;5052704;28;20462;-72
2022/10/17 03:26:38;;;;;;;44.70;31.00;;;14.40;90.40;;;;;;5052694;28;20029;-72
2022/10/17 03:29:04;;;;;;;38.63;29.90;;;14.40;90.40;;;;;;5052746;28;20076;-73
2022/10/17 03:31:29;;;;;;;46.03;30.85;;;14.50;90.30;;;;;;5052693;28;20052;-72
2022/10/17 03:33:55;;;;;;;44.53;30.30;;;14.50;90.30;;;;;;5052293;28;20045;-72
2022/10/17 03:36:21;;;;;;;40.55;30.95;;;14.50;90.30;;;;;;5052420;28;20524;-72
2022/10/17 03:38:47;;;;;;;38.33;29.50;;;14.40;90.30;;;;;;5052725;28;20043;-72
2022/10/17 03:41:13;;;;;;;36.70;28.33;;;14.40;90.20;;;;;;5052455;28;20090;-72
2022/10/17 03:43:39;;;;;;;36.97;27.65;;;14.40;90.10;;;;;;5052582;28;20076;-72
2022/10/17 03:46:05;;;;;;;37.50;28.48;;;14.40;90.00;;;;;;5052701;28;20095;-72
2022/10/17 03:48:32;;;;;;;43.50;28.80;;;14.40;90.10;;;;;;5052542;28;20033;-72
2022/10/17 03:51:04;;;;;;;43.60;29.92;;;14.40;90.10;;;;;;5052709;28;20409;-72
2022/10/17 03:53:29;;;;;;;38.30;30.15;;;14.40;90.20;;;;;;5052402;28;20112;-72
2022/10/17 03:55:56;;;;;;;42.97;29.35;;;14.30;90.30;;;;;;5052405;28;20091;-72
2022/10/17 03:58:22;;;;;;;37.45;28.95;;;14.30;90.30;;;;;;5052319;28;20358;-72
2022/10/17 04:00:48;;;;;;;38.10;29.02;;;14.30;90.40;;;;;;5052123;28;20060;-72
2022/10/17 04:03:13;;;;;;;37.97;29.15;;;14.30;90.30;;;;;;5051952;28;20041;-73
2022/10/17 04:05:39;;;;;;;48.20;30.85;;;14.20;90.20;;;;;;5052187;28;20041;-72
2022/10/17 04:08:05;;;;;;;45.58;30.30;;;14.30;90.20;;;;;;5052225;28;20048;-73
2022/10/17 04:10:31;;;;;;;40.63;30.13;;;14.30;90.30;;;;;;5052485;28;20485;-72
2022/10/17 04:12:56;;;;;;;45.63;28.67;;;14.20;90.30;;;;;;5052484;28;20040;-72
2022/10/17 04:15:22;;;;;;;42.75;28.92;;;14.20;90.20;;;;;;5052805;28;20080;-72
2022/10/17 04:17:48;;;;;;;39.35;29.15;;;14.30;90.10;;;;;;5056385;28;20036;-72
2022/10/17 04:20:13;;;;;;;38.30;27.60;;;14.20;90.00;;;;;;5056286;28;20037;-72
2022/10/17 04:22:39;;;;;;;40.13;28.27;;;14.20;89.90;;;;;;5055919;28;20114;-72
2022/10/17 04:25:05;;;;;;;45.97;29.92;;;14.20;89.80;;;;;;5055587;28;20040;-72
2022/10/17 04:27:30;;;;;;;41.45;28.38;;;14.20;89.90;;;;;;5056086;28;20039;-72
2022/10/17 04:29:56;;;;;;;39.88;29.02;;;14.10;89.90;;;;;;5055758;28;20045;-72
2022/10/17 04:32:22;;;;;;;40.70;28.70;;;14.10;90.00;;;;;;5055612;28;20044;-72
2022/10/17 04:34:49;;;;;;;42.97;30.20;;;14.10;90.00;;;;;;5055937;28;20039;-72
2022/10/17 04:37:14;;;;;;;40.45;30.60;;;14.10;90.10;;;;;;5055380;28;20405;-72
2022/10/17 04:39:40;;;;;;;40.60;29.38;;;14.10;90.10;;;;;;5055803;28;20029;-72
2022/10/17 04:42:06;;;;;;;40.25;30.55;;;14.10;90.00;;;;;;5055563;28;20029;-72
2022/10/17 04:44:32;;;;;;;48.80;29.80;;;14.10;90.00;;;;;;5055592;28;20477;-72
2022/10/17 04:46:58;;;;;;;50.65;28.95;;;14.10;90.10;;;;;;5055473;28;20044;-72
2022/10/17 04:49:24;;;;;;;49.55;30.48;;;14.10;90.00;;;;;;5055427;28;20116;-73
2022/10/17 04:51:49;;;;;;;44.15;30.08;;;14.00;89.90;;;;;;5055307;28;20389;-72
2022/10/17 04:54:15;;;;;;;48.38;29.65;;;14.00;89.70;;;;;;5055463;28;20037;-72
2022/10/17 04:56:41;;;;;;;44.38;29.48;;;14.00;89.80;;;;;;5055347;28;20090;-72
2022/10/17 04:59:06;;;;;;;50.22;29.75;;;14.00;89.70;;;;;;5055177;28;20071;-72
2022/10/17 05:01:32;;;;;;;44.10;29.45;;;14.00;89.70;;;;;;5055534;28;20040;-72
2022/10/17 05:03:58;;;;;;;44.05;29.60;;;14.00;89.70;;;;;;5055294;28;20040;-72
2022/10/17 05:06:27;;;;;;;42.20;29.75;;;13.90;89.50;;;;;;5055340;28;20036;-72
2022/10/17 05:08:52;;;;;;;48.50;30.25;;;13.90;89.70;;;;;;5054999;28;20508;-71
2022/10/17 05:11:24;;;;;;;46.10;30.52;;;13.90;89.60;;;;;;5054984;28;20132;-72
2022/10/17 05:14:01;;;;;;;46.65;30.58;;;13.90;89.80;;;;;;5055019;28;20030;-72
2022/10/17 05:16:27;;;;;;;42.40;31.17;;;13.80;89.80;;;;;;5054812;28;20485;-72
2022/10/17 05:18:56;;;;;;;46.58;30.45;;;13.90;89.80;;;;;;5054750;28;20029;-72
2022/10/17 05:21:24;;;;;;;53.88;31.80;;;13.90;89.60;;;;;;5054836;28;20059;-72
2022/10/17 05:23:50;;;;;;;47.00;31.75;;;13.80;89.40;;;;;;5054616;28;20037;-72
2022/10/17 05:26:16;;;;;;;48.90;29.30;;;13.80;89.50;;;;;;5054769;28;20041;-72
2022/10/17 05:28:42;;;;;;;45.60;30.00;;;13.80;89.40;;;;;;5053689;28;20055;-72
2022/10/17 05:31:09;;;;;;;47.55;30.00;;;13.80;89.20;;;;;;5054592;28;20128;-72
2022/10/17 05:33:36;;;;;;;43.53;29.33;;;13.80;89.30;;;;;;5054502;28;20405;-72
2022/10/17 05:36:02;;;;;;;43.33;29.70;;;13.80;89.30;;;;;;5054623;28;20060;-71
2022/10/17 05:38:28;;;;;;;50.28;31.63;;;13.80;89.10;;;;;;5054448;28;20394;-73
2022/10/17 05:41:02;;;;;;;47.72;31.25;;;13.80;89.10;;;;;;5054246;28;20043;-73
2022/10/17 05:43:28;;;;;;;52.45;32.80;;;13.70;89.20;;;;;;5054475;28;20037;-72
2022/10/17 05:45:54;;;;;;;49.83;30.98;;;13.70;89.60;;;;;;5054454;28;20474;-72
2022/10/17 05:48:21;;;;;;;42.33;30.08;;;13.70;89.70;;;;;;5054378;28;20091;-72
2022/10/17 05:50:47;;;;;;;48.05;32.05;;;13.60;90.00;;;;;;5054123;28;20049;-72
2022/10/17 05:53:13;;;;;;;43.53;31.08;;;13.60;90.00;;;;;;5054374;28;20482;-72
2022/10/17 05:55:39;;;;;;;43.03;32.40;;;13.60;90.10;;;;;;5054333;28;20079;-72
2022/10/17 05:58:04;;;;;;;48.05;32.75;;;13.70;90.00;;;;;;5054316;28;20033;-73
2022/10/17 06:00:30;;;;;;;43.80;31.45;;;13.60;90.10;;;;;;5052532;28;20056;-72
2022/10/17 06:02:56;;;;;;;49.97;32.88;;;13.60;90.00;;;;;;5053369;28;20033;-72
2022/10/17 06:05:21;;;;;;;51.53;33.05;;;13.70;90.10;;;;;;5053543;28;20037;-72
2022/10/17 06:07:49;;;;;;;42.90;31.45;;;13.70;90.20;;;;;;5053483;28;20037;-71
2022/10/17 06:10:16;;;;;;;53.10;34.00;;;13.70;90.10;;;;;;5053323;28;20397;-72
2022/10/17 06:12:42;;;;;;;52.78;36.22;;;13.80;90.10;;;;;;5054654;28;20036;-72
2022/10/17 06:15:08;;;;;;;74.18;37.95;;;13.70;90.10;;;;;;5053369;28;20041;-72
2022/10/17 06:17:34;;;;;;;58.80;37.60;;;13.70;90.30;;;;;;5052841;28;20025;-72
2022/10/17 06:20:00;;;;;;;72.68;39.28;;;13.70;90.30;;;;;;5063280;28;20428;-72
2022/10/17 06:22:26;;;;;;;67.55;38.30;;;13.70;90.40;;;;;;5052702;28;20040;-71
2022/10/17 06:24:52;;;;;;;70.10;36.03;;;13.80;90.40;;;;;;5052195;28;20067;-72
2022/10/17 06:27:19;;;;;;;72.75;36.10;;;13.80;90.50;;;;;;5053144;28;20029;-72
2022/10/17 06:29:46;;;;;;;60.97;35.03;;;13.80;90.50;;;;;;5052021;28;20044;-72
2022/10/17 06:32:11;;;;;;;67.38;34.42;;;13.80;90.60;;;;;;5050817;28;20029;-72
2022/10/17 06:34:37;;;;;;;63.47;33.65;;;13.80;90.60;;;;;;5051713;28;20029;-73
2022/10/17 06:37:02;;;;;;;52.33;34.10;;;13.90;90.60;;;;;;5053392;28;20109;-73
2022/10/17 06:39:32;;;;;;;52.20;33.30;;;13.90;90.70;;;;;;5053065;28;20033;-71
2022/10/17 06:42:02;;;;;;;46.85;32.60;;;13.90;90.70;;;;;;5052478;28;20389;-72
2022/10/17 06:44:30;;;;;;;49.38;31.80;;;13.90;90.80;;;;;;5052537;28;20063;-71
2022/10/17 06:46:57;;;;;;;53.72;33.28;;;14.00;90.80;;;;;;5058908;28;20112;-71
2022/10/17 06:49:23;;;;;;;47.38;33.85;;;14.00;90.90;;;;;;5073132;28;20082;-73
2022/10/17 06:51:49;;;;;;;44.25;31.20;;;14.10;91.10;;;;;;5072822;28;20037;-72
2022/10/17 06:54:14;;;;;;;50.78;33.70;;;14.10;91.10;;;;;;5072073;28;20074;-72
2022/10/17 06:56:40;;;;;;;54.92;33.25;;;14.20;91.10;;;;;;5072701;28;20075;-72
2022/10/17 06:59:07;;;;;;;56.85;33.90;;;14.20;91.20;;;;;;5072237;28;20043;-72
2022/10/17 07:01:33;;;;;;;54.55;33.97;;;14.30;91.20;;;;;;5072583;28;20495;-72
2022/10/17 07:03:59;;;;;;;43.75;32.45;;;14.30;91.20;;;;;;5072575;28;20028;-71
2022/10/17 07:06:24;;;;;;;53.58;33.70;;;14.30;91.30;;;;;;5072077;28;20032;-72
2022/10/17 07:08:51;;;;;;;47.42;33.90;;;14.40;91.40;;;;;;5071596;28;20068;-72
2022/10/17 07:11:19;;;;;;;47.78;33.20;;;14.40;91.50;;;;;;5049808;28;20091;-72
2022/10/17 07:13:45;;;;;;;48.97;33.40;;;14.50;91.60;;;;;;5032067;28;20038;-72
2022/10/17 07:16:12;;;;;;;51.10;32.72;;;14.50;91.70;;;;;;5031292;28;20033;-72
2022/10/17 07:18:38;;;;;;;46.97;32.85;;;14.60;91.60;;;;;;5031681;28;20065;-69
2022/10/17 07:21:05;;;;;;;47.50;32.58;;;14.70;91.80;;;;;;5032392;28;20055;-69
2022/10/17 07:23:31;;;;;;;46.80;33.33;;;14.70;91.70;;;;;;5034966;28;20041;-69
2022/10/17 07:26:01;;;;;;;46.20;33.33;;;14.80;91.80;;;;;;5031527;28;20404;-70
2022/10/17 07:28:27;;;;;;;47.67;34.58;;;14.90;91.90;;;;;;5031721;28;20041;-70
2022/10/17 07:30:53;;;;;;;45.08;33.22;;;15.00;92.00;;;;;;5049554;28;20056;-70
2022/10/17 07:33:19;;;;;;;49.15;33.13;;;15.00;92.10;;;;;;5046822;28;20030;-69
2022/10/17 07:35:45;;;;;;;42.70;33.17;;;15.10;92.10;;;;;;5032389;28;20556;-69
2022/10/17 07:38:10;;;;;;;43.45;31.10;;;15.20;92.20;;;;;;5035006;28;20496;-70
2022/10/17 07:40:36;;;;;;;45.05;31.65;;;15.30;92.10;;;;;;5038260;28;20037;-70
2022/10/17 07:43:02;;;;;;;48.45;33.85;;;15.30;91.90;;;;;;5049262;28;20100;-69
2022/10/17 07:45:27;;;;;;;50.13;32.65;;;15.40;91.90;;;;;;5052029;28;20064;-70
2022/10/17 07:47:57;;;;;;;42.42;31.80;;;15.40;91.90;;;;;;5051986;28;20036;-70
2022/10/17 07:50:23;;;;;;;53.45;31.77;;;15.50;92.00;;;;;;5052361;28;20051;-69
2022/10/17 07:52:49;;;;;;;47.40;32.35;;;15.60;91.90;;;;;;5056281;28;20029;-69
2022/10/17 07:55:15;;;;;;;45.50;31.45;;;15.70;91.90;;;;;;5056562;28;20497;-69
2022/10/17 07:57:41;;;;;;;46.85;32.25;;;15.70;91.80;;;;;;5055937;28;20037;-69
2022/10/17 08:00:08;;;;;;;42.75;30.67;;;15.80;91.80;;;;;;5056129;28;20053;-69
2022/10/17 08:02:33;;;;;;;46.55;30.25;;;15.90;91.90;;;;;;5054785;28;20025;-69
2022/10/17 08:04:59;;;;;;;45.05;31.00;;;15.90;91.90;;;;;;5055325;28;20037;-69
2022/10/17 08:07:25;;;;;;;48.47;29.95;;;16.00;91.90;;;;;;5056333;28;20033;-70
2022/10/17 08:09:50;;;;;;;41.70;29.73;;;16.10;91.90;;;;;;5055422;28;20044;-69
2022/10/17 08:12:16;;;;;;;44.33;30.65;;;16.10;91.80;;;;;;5055881;28;20051;-69
2022/10/17 08:14:43;;;;;;;46.45;30.58;;;16.20;91.90;;;;;;5055963;28;20039;-69
2022/10/17 08:17:09;;;;;;;43.40;29.70;;;16.30;91.90;;;;;;5056207;28;20490;-69
2022/10/17 08:19:38;;;;;;;35.50;27.38;;;16.40;92.00;;;;;;5055004;28;20068;-70
2022/10/17 08:22:04;;;;;;;40.28;29.63;;;16.40;92.00;;;;;;5055551;28;20025;-69
2022/10/17 08:24:30;;;;;;;44.95;30.48;;;16.50;92.10;;;;;;5055697;28;20075;-69
2022/10/17 08:26:57;;;;;;;40.95;28.30;;;16.60;92.00;;;;;;5056043;28;20025;-69
2022/10/17 08:29:23;;;;;;;38.83;27.55;;;16.60;91.60;;;;;;5056028;28;20076;-69
2022/10/17 08:31:49;;;;;;;43.45;27.92;;;16.70;91.70;;;;;;5055720;28;20072;-69
2022/10/17 08:34:15;;;;;;;38.28;27.80;;;16.80;91.90;;;;;;5056107;28;20079;-69
2022/10/17 08:36:40;;;;;;;31.55;25.60;;;16.90;91.70;;;;;;5055849;28;20378;-69
2022/10/17 08:39:06;;;;;;;39.30;27.60;;;16.90;91.80;;;;;;5055840;28;20029;-69
2022/10/17 08:42:04;;;;;;;37.55;26.17;;;17.00;91.60;;;;;;5055782;28;20482;-69
2022/10/17 08:44:38;;;;;;;35.92;26.95;;;17.10;91.10;;;;;;5055482;28;20025;-69
2022/10/17 08:47:26;;;;;;;38.40;26.33;;;17.10;91.00;;;;;;5037754;28;20386;-69
2022/10/17 08:49:57;;;;;;;36.60;26.08;;;17.20;91.10;;;;;;5055588;28;20049;-69
2022/10/17 08:52:37;;;;;;;34.85;27.02;;;17.30;91.00;;;;;;5055626;28;20029;-69
2022/10/17 08:55:12;;;;;;;37.60;25.48;;;17.40;91.10;;;;;;5055647;28;20025;-69
2022/10/17 08:57:37;;;;;;;37.45;25.80;;;17.40;91.40;;;;;;5055468;28;20113;-69
2022/10/17 09:00:17;;;;;;;43.63;26.90;;;17.50;91.20;;;;;;5055318;28;20125;-69
2022/10/17 09:03:18;;;;;;;43.60;26.95;;;17.60;91.30;;;;;;5054380;28;20063;-68
2022/10/17 09:05:56;;;;;;;35.08;26.40;;;17.70;90.90;;;;;;5032407;28;20430;-69
2022/10/17 09:08:51;;;;;;;34.75;26.75;;;17.70;90.20;;;;;;5055150;28;20446;-69
2022/10/17 09:12:01;;;;;;;36.97;27.42;;;17.80;90.40;;;;;;5018110;28;20046;-69
2022/10/17 09:15:01;;;;;;;37.58;26.02;;;17.90;90.20;;;;;;5044329;28;20552;-69
2022/10/17 09:18:11;;;;;;;34.95;27.20;;;18.00;90.00;;;;;;5055052;28;20316;-69
2022/10/17 09:20:51;;;;;;;36.97;27.17;;;18.10;87.90;;;;;;5013085;28;20231;-69
2022/10/17 09:23:21;;;;;;;40.60;27.40;;;18.20;88.10;;;;;;5013140;28;20113;-69
2022/10/17 09:25:52;;;;;;;33.17;25.77;;;18.30;88.60;;;;;;5039425;28;20120;-69
2022/10/17 09:28:26;;;;;;;36.03;26.17;;;18.30;88.20;;;;;;5055021;28;20044;-69
2022/10/17 09:30:58;;;;;;;40.65;26.75;;;18.40;88.60;;;;;;5054828;28;20485;-69
2022/10/17 09:33:29;;;;;;;35.17;26.92;;;18.50;88.10;;;;;;5054859;28;20044;-70
2022/10/17 09:35:56;;;;;;;33.03;24.98;;;18.50;86.50;;;;;;5054663;28;20449;-69
2022/10/17 09:38:40;;;;;;;33.47;23.77;;;18.60;86.30;;;;;;5054493;28;20433;-69
2022/10/17 09:41:15;;;;;;;35.00;25.73;;;18.70;87.00;;;;;;5054588;28;20029;-69
2022/10/17 09:43:40;;;;;;;29.90;24.70;;;18.80;87.80;;;;;;5054670;28;20036;-69
2022/10/17 09:46:18;;;;;;;32.25;23.88;;;18.80;87.00;;;;;;5054510;28;20037;-70
2022/10/17 09:48:50;;;;;;;31.17;24.42;;;18.90;87.50;;;;;;5054581;28;20116;-69
2022/10/17 09:51:16;;;;;;;;;;;19.00;87.60;;;;;;5054842;28;20520;-69
2022/10/17 09:53:45;;;;;;;31.17;24.60;;;19.10;86.00;;;;;;5054483;28;19905;-69
2022/10/17 09:56:15;;;;;;;34.00;23.48;;;19.20;86.00;;;;;;5054233;28;20162;-70
2022/10/17 09:58:45;;;;;;;34.25;24.92;;;19.20;86.10;;;;;;5053981;28;20512;-69
2022/10/17 10:01:20;;;;;;;35.15;23.42;;;19.30;85.70;;;;;;5054503;28;20041;-69
2022/10/17 10:03:46;;;;;;;34.88;25.17;;;19.30;85.60;;;;;;5054262;28;20061;-69
2022/10/17 10:06:19;;;;;;;31.45;23.23;;;19.40;86.00;;;;;;5054148;28;20025;-69
2022/10/17 10:08:57;;;;;;;28.10;23.88;;;19.50;85.80;;;;;;5053949;28;20053;-69
2022/10/17 10:11:43;;;;;;;36.65;24.33;;;19.60;85.40;;;;;;5054101;28;20077;-69
2022/10/17 10:14:22;;;;;;;29.83;23.88;;;19.70;83.60;;;;;;5053848;28;20041;-69
2022/10/17 10:16:52;;;;;;;33.00;23.77;;;19.80;82.80;;;;;;5053768;28;20068;-70
2022/10/17 10:19:36;;;;;;;29.40;23.65;;;19.80;83.60;;;;;;5053555;28;20052;-69
2022/10/17 10:22:14;;;;;;;32.75;25.88;;;19.90;83.40;;;;;;5054056;28;20041;-69
2022/10/17 10:24:40;;;;;;;27.60;24.60;;;20.00;82.80;;;;;;5053603;28;20044;-69
2022/10/17 10:27:14;;;;;;;30.35;25.30;;;20.10;82.40;;;;;;5053745;28;20036;-70
2022/10/17 10:29:49;;;;;;;30.65;25.33;;;20.20;81.00;;;;;;5053680;28;20036;-70
2022/10/17 10:32:32;;;;;;;32.45;25.58;;;20.20;80.20;;;;;;5053417;28;20097;-69
2022/10/17 10:35:17;;;;;;;32.83;24.65;;;20.30;79.90;;;;;;5053157;28;20040;-69
2022/10/17 10:37:48;;;;;;;30.35;23.42;;;20.40;80.60;;;;;;5053418;28;20167;-69
2022/10/17 10:40:17;;;;;;;34.55;25.15;;;20.50;80.50;;;;;;5053604;28;20477;-70
2022/10/17 10:42:47;;;;;;;30.38;24.10;;;20.60;80.00;;;;;;5053388;28;20079;-69
2022/10/17 10:45:22;;;;;;;30.55;24.77;;;20.60;79.80;;;;;;5053611;28;20432;-69
2022/10/17 10:47:57;;;;;;;33.67;24.40;;;20.70;80.70;;;;;;5053272;28;20049;-69
2022/10/17 10:50:37;;;;;;;30.15;22.05;;;20.80;80.00;;;;;;5053082;28;20045;-70
2022/10/17 10:53:27;;;;;;;30.20;21.77;;;20.90;79.90;;;;;;5053478;28;20033;-70
2022/10/17 10:56:17;;;;;;;27.50;21.98;;;21.00;79.20;;;;;;5053237;28;20366;-70
2022/10/17 10:58:52;;;;;;;29.10;22.27;;;21.10;79.00;;;;;;5053007;28;20053;-70
2022/10/17 11:02:01;;;;;;;28.42;22.20;;;21.10;78.40;;;;;;5053181;28;20045;-70
2022/10/17 11:04:32;;;;;;;24.13;20.98;;;21.30;78.40;;;;;;5033466;28;20088;-70
2022/10/17 11:07:05;;;;;;;25.70;21.10;;;21.30;76.40;;;;;;5053228;28;20041;-70
2022/10/17 11:09:41;;;;;;;32.25;22.35;;;21.30;75.20;;;;;;5053007;28;20488;-70
2022/10/17 11:12:17;;;;;;;26.08;20.45;;;21.40;74.40;;;;;;5052406;28;20132;-70
2022/10/17 11:15:07;;;;;;;23.50;19.25;;;21.50;73.90;;;;;;5051715;28;20033;-70
2022/10/17 11:17:39;;;;;;;23.30;19.25;;;21.50;73.10;;;;;;5052652;28;20033;-69
2022/10/17 11:20:07;;;;;;;24.13;20.30;;;21.60;73.60;;;;;;5052982;28;20021;-70
2022/10/17 11:22:40;;;;;;;23.52;19.85;;;21.70;73.40;;;;;;5052394;28;20083;-70
2022/10/17 11:25:34;;;;;;;29.80;19.90;;;21.80;73.20;;;;;;5051905;28;20035;-69
2022/10/17 11:28:01;;;;;;;21.63;19.35;;;21.80;73.50;;;;;;5052795;28;20036;-70
2022/10/17 11:30:35;;;;;;;23.95;19.92;;;21.90;73.70;;;;;;5052796;28;20045;-70
2022/10/17 11:33:04;;;;;;;22.33;19.02;;;22.00;73.30;;;;;;5052819;28;20500;-70
2022/10/17 11:35:37;;;;;;;29.98;20.38;;;22.00;73.10;;;;;;5052705;28;20041;-70
2022/10/17 11:38:26;;;;;;;22.38;19.98;;;22.10;72.60;;;;;;5052562;28;20040;-70
2022/10/17 11:40:57;;;;;;;25.13;19.55;;;22.20;72.40;;;;;;5046964;28;20045;-70
2022/10/17 11:43:55;;;;;;;22.85;20.50;;;22.30;72.70;;;;;;5052412;28;20375;-70
2022/10/17 11:46:23;;;;;;;23.40;20.10;;;22.30;73.10;;;;;;5043371;28;20047;-70
2022/10/17 11:49:11;;;;;;;27.38;19.90;;;22.30;72.80;;;;;;5052768;28;20025;-69
2022/10/17 11:51:48;;;;;;;23.90;19.40;;;22.40;71.60;;;;;;5052327;28;20076;-70
2022/10/17 11:54:41;;;;;;;22.55;19.38;;;22.40;72.90;;;;;;5052337;28;20029;-70
2022/10/17 11:57:28;;;;;;;21.27;18.45;;;22.50;71.80;;;;;;5050444;28;20040;-69
2022/10/17 12:00:05;;;;;;;25.58;19.08;;;22.60;71.80;;;;;;5052403;28;20185;-70
2022/10/17 12:02:36;;;;;;;22.17;18.50;;;22.60;70.70;;;;;;5052568;28;20167;-69
2022/10/17 12:05:21;;;;;;;22.02;19.38;;;22.70;71.30;;;;;;5052490;28;20047;-70
2022/10/17 12:07:54;;;;;;;23.15;19.08;;;22.70;70.20;;;;;;5052365;28;20044;-69
2022/10/17 12:10:41;;;;;;;22.10;18.23;;;22.70;70.10;;;;;;5052332;28;20374;-68
2022/10/17 12:13:29;;;;;;;22.88;18.70;;;22.80;71.20;;;;;;5052487;28;20029;-69
2022/10/17 12:15:56;;;;;;;22.02;17.85;;;22.80;69.60;;;;;;5052378;28;20045;-69
2022/10/17 12:18:28;;;;;;;27.05;19.00;;;22.90;70.10;;;;;;5052226;28;20029;-68
2022/10/17 12:20:58;;;;;;;26.52;18.88;;;22.90;70.90;;;;;;5052803;28;20033;-67
2022/10/17 12:23:29;;;;;;;22.60;17.15;;;22.90;67.30;;;;;;5052429;28;20086;-68
2022/10/17 12:26:00;;;;;;;19.77;17.63;;;23.00;67.70;;;;;;5051967;28;20033;-68
2022/10/17 12:28:46;;;;;;;24.27;19.35;;;23.00;67.60;;;;;;5052098;28;20228;-67
2022/10/17 12:31:16;;;;;;;25.58;17.60;;;23.00;68.10;;;;;;5052221;28;20045;-68
2022/10/17 12:33:49;;;;;;;21.65;17.92;;;23.10;68.70;;;;;;5028083;28;20120;-68
2022/10/17 12:36:21;;;;;;;23.38;18.10;;;23.10;68.90;;;;;;5023579;28;20397;-67
2022/10/17 12:38:50;;;;;;;21.55;17.33;;;23.10;66.90;;;;;;5027530;28;20552;-67
2022/10/17 12:41:36;;;;;;;22.75;18.23;;;23.00;66.80;;;;;;5025754;28;20041;-68
2022/10/17 12:44:25;;;;;;;26.15;18.65;;;23.10;67.40;;;;;;5018205;28;20038;-68
2022/10/17 12:47:09;;;;;;;24.52;17.85;;;23.20;67.90;;;;;;5015294;28;20040;-68
2022/10/17 12:49:48;;;;;;;25.50;18.92;;;23.20;67.40;;;;;;5015551;28;20433;-69
2022/10/17 12:52:26;;;;;;;21.85;18.45;;;23.20;67.00;;;;;;5015095;28;20101;-69